MOL Modern — V7VS6 — position and weather

sailwx.info

Track history (hours):
 
Tides and Currents Weather Stations Pressure Air Temp Water Temp Dewpoint Dewpoint Depression Visibility Wind Speed Wind Dir Waves Ship Positions

MOL Modern

Last reported at 2017-Jan-12 07:31 UTC. Time now 2017-Jan-19 23:27 UTC.
Position N 33°53' E 134°55'.

Length 302 m; draft 10.1 m.

Type: Ship (hazmat cat A). MMSI: 538004203.

Date/timePositionNaut miles runAvg speedWind from/ knotsBaromVisibWave heightAir tempDewpointWater temp
2017-Jan-12 07:31N 33°53' E 134°55'1414.2
2017-Jan-12 06:33N 34°07' E 134°57'1313.1
2017-Jan-12 05:33N 34°20' E 134°59'1616.0
2017-Jan-12 04:33N 34°31' E 135°13'8 8.2
2017-Jan-12 03:33N 34°39' E 135°15'0 0.0
2017-Jan-12 02:21N 34°39' E 135°15'0 0.0
2017-Jan-12 01:33N 34°39' E 135°15'0 0.0
2017-Jan-12 00:33N 34°39' E 135°15'0 0.0
2017-Jan-11 23:33N 34°39' E 135°15'0 0.0
2017-Jan-11 22:33N 34°39' E 135°15'0 0.0
2017-Jan-11 21:30N 34°39' E 135°15'0 0.0
2017-Jan-11 20:33N 34°39' E 135°15'0 0.0
2017-Jan-11 19:33N 34°39' E 135°15'0 0.0
2017-Jan-11 18:33N 34°39' E 135°15'0 0.0
2017-Jan-11 17:33N 34°39' E 135°15'0 0.0
2017-Jan-11 16:27N 34°39' E 135°15'0 0.0
2017-Jan-11 15:33N 34°39' E 135°15'0 0.0
2017-Jan-11 14:33N 34°39' E 135°15'0 0.0
2017-Jan-11 13:33N 34°39' E 135°15'0 0.0
2017-Jan-11 12:33N 34°39' E 135°15'0 0.4
2017-Jan-11 11:33N 34°39' E 135°15'8 7.9
2017-Jan-11 10:33N 34°32' E 135°13'1817.5
2017-Jan-11 09:33N 34°18' E 134°59'1111.3
2017-Jan-11 08:34N 34°07' E 135°00'9 9.4
2017-Jan-11 07:33N 33°57' E 134°59'23918.4
2017-Jan-10 18:33N 35°00' E 139°40'1514.8
2017-Jan-10 17:34N 35°14' E 139°46'1211.9
2017-Jan-10 16:33N 35°26' E 139°44'1110.5
2017-Jan-10 15:33N 35°36' E 139°47'1 0.9
2017-Jan-10 14:31N 35°36' E 139°46'0 0.0
2017-Jan-10 13:31N 35°36' E 139°46'0 0.0
2017-Jan-10 12:31N 35°36' E 139°46'0 0.0
2017-Jan-10 11:28N 35°36' E 139°46'0 0.0
2017-Jan-10 10:31N 35°36' E 139°46'0 0.0
2017-Jan-10 09:31N 35°36' E 139°46'0 0.0
2017-Jan-10 08:31N 35°36' E 139°46'0 0.0
2017-Jan-10 07:31N 35°36' E 139°46'0 0.0
2017-Jan-10 06:31N 35°36' E 139°46'0 0.0
2017-Jan-10 05:31N 35°36' E 139°46'0 0.0
2017-Jan-10 04:31N 35°36' E 139°46'0 0.0
2017-Jan-10 03:31N 35°36' E 139°46'0 0.0
2017-Jan-10 02:31N 35°36' E 139°46'0 0.0
2017-Jan-10 01:31N 35°36' E 139°46'0 0.0
2017-Jan-10 00:31N 35°36' E 139°46'0 0.0
2017-Jan-09 23:28N 35°36' E 139°46'2 2.4
2017-Jan-09 22:34N 35°35' E 139°48'8 8.2
2017-Jan-09 21:34N 35°27' E 139°50'1110.9
2017-Jan-09 20:34N 35°16' E 139°46'10 9.7
2017-Jan-09 19:33N 35°07' E 139°46'1010.4
2017-Jan-09 18:33N 34°56' E 139°43'2812.1
2017-Jan-09 16:14N 34°56' E 140°17'  
Track history (hours):
 
Tides and Currents Weather Stations Pressure Air Temp Water Temp Dewpoint Dewpoint Depression Visibility Wind Speed Wind Dir Waves Ship Positions

MOL Modern

Last reported at 2017-Jan-12 07:31 UTC. Time now 2017-Jan-19 23:27 UTC.
Position N 33°53' E 134°55'.

Length 302 m; draft 10.1 m.

Type: Ship (hazmat cat A). MMSI: 538004203.

Date/timePositionNaut miles runAvg speedWind from/ knotsBaromVisibWave heightAir tempDewpointWater temp
2017-Jan-12 07:31N 33°53' E 134°55'1414.2
2017-Jan-12 06:33N 34°07' E 134°57'1313.1
2017-Jan-12 05:33N 34°20' E 134°59'1616.0
2017-Jan-12 04:33N 34°31' E 135°13'8 8.2
2017-Jan-12 03:33N 34°39' E 135°15'0 0.0
2017-Jan-12 02:21N 34°39' E 135°15'0 0.0
2017-Jan-12 01:33N 34°39' E 135°15'0 0.0
2017-Jan-12 00:33N 34°39' E 135°15'0 0.0
2017-Jan-11 23:33N 34°39' E 135°15'0 0.0
2017-Jan-11 22:33N 34°39' E 135°15'0 0.0
2017-Jan-11 21:30N 34°39' E 135°15'0 0.0
2017-Jan-11 20:33N 34°39' E 135°15'0 0.0
2017-Jan-11 19:33N 34°39' E 135°15'0 0.0
2017-Jan-11 18:33N 34°39' E 135°15'0 0.0
2017-Jan-11 17:33N 34°39' E 135°15'0 0.0
2017-Jan-11 16:27N 34°39' E 135°15'0 0.0
2017-Jan-11 15:33N 34°39' E 135°15'0 0.0
2017-Jan-11 14:33N 34°39' E 135°15'0 0.0
2017-Jan-11 13:33N 34°39' E 135°15'0 0.0
2017-Jan-11 12:33N 34°39' E 135°15'0 0.4
2017-Jan-11 11:33N 34°39' E 135°15'8 7.9
2017-Jan-11 10:33N 34°32' E 135°13'1817.5
2017-Jan-11 09:33N 34°18' E 134°59'1111.3
2017-Jan-11 08:34N 34°07' E 135°00'9 9.4
2017-Jan-11 07:33N 33°57' E 134°59'23918.4
2017-Jan-10 18:33N 35°00' E 139°40'1514.8
2017-Jan-10 17:34N 35°14' E 139°46'1211.9
2017-Jan-10 16:33N 35°26' E 139°44'1110.5
2017-Jan-10 15:33N 35°36' E 139°47'1 0.9
2017-Jan-10 14:31N 35°36' E 139°46'0 0.0
2017-Jan-10 13:31N 35°36' E 139°46'0 0.0
2017-Jan-10 12:31N 35°36' E 139°46'0 0.0
2017-Jan-10 11:28N 35°36' E 139°46'0 0.0
2017-Jan-10 10:31N 35°36' E 139°46'0 0.0
2017-Jan-10 09:31N 35°36' E 139°46'0 0.0
2017-Jan-10 08:31N 35°36' E 139°46'0 0.0
2017-Jan-10 07:31N 35°36' E 139°46'0 0.0
2017-Jan-10 06:31N 35°36' E 139°46'0 0.0
2017-Jan-10 05:31N 35°36' E 139°46'0 0.0
2017-Jan-10 04:31N 35°36' E 139°46'0 0.0
2017-Jan-10 03:31N 35°36' E 139°46'0 0.0
2017-Jan-10 02:31N 35°36' E 139°46'0 0.0
2017-Jan-10 01:31N 35°36' E 139°46'0 0.0
2017-Jan-10 00:31N 35°36' E 139°46'0 0.0
2017-Jan-09 23:28N 35°36' E 139°46'2 2.4
2017-Jan-09 22:34N 35°35' E 139°48'8 8.2
2017-Jan-09 21:34N 35°27' E 139°50'1110.9
2017-Jan-09 20:34N 35°16' E 139°46'10 9.7
2017-Jan-09 19:33N 35°07' E 139°46'1010.4
2017-Jan-09 18:33N 34°56' E 139°43'2812.1
2017-Jan-09 16:14N 34°56' E 140°17'  

Dump ship's entire track history